EDFH Airport Information

Runway Information
Runway 03 Length 12467 ft width 148 ft
Elevation 1649 ft Threshold 3461 ft Heading 32
Runway 21 Length 12467 ft Width 148 ft
Elevation 1595 ft Threshold 984 ft Heading 212
Airport Frequencies
Type AFIS Name LANGEN INF Frequency 123.525 MHZ
Type APP Name LANGEN RAD Frequency 125.6 MHZ
Type ATIS Name ATIS Frequency 136.35 MHZ
Type GND Name GND Frequency 121.975 MHZ
Type TWR Name TWR Frequency 119.65 MHZ
Airport Navaids
Type NDB Name Hahn Frequency 376 KHZ
Type DME Name Hahn Frequency 116950 KHZ
Airport Weather Information & NOTAM
ADDS - METARS form results

(2346 UTC 20 January 2019)
Data provider http://aviationweather.gov/metar/data/
 
METAR text: EDFH 202320Z 09004KT 050V120 CAVOK M07/M08 Q1018
Conditions at: EDFH (HAHN , DE) observed 2320 UTC 20 January 2019
Temperature: -7.0°C (19°F)
Dewpoint: -8.0°C (18°F) [RH = 93%]
Pressure (altimeter): 30.06 inches Hg (1018.0 mb)
Winds: from the E (90 degrees) at 5 MPH (4 knots; 2.1 m/s)
Visibility: 6 or more miles (10+ km)
Ceiling: ceiling and visibility are OK
Clouds: unknown
Weather: no significant weather observed at this time

METAR text: EDFH 202250Z 08005KT 060V120 CAVOK M06/M08 Q1018
Conditions at: EDFH (HAHN , DE) observed 2250 UTC 20 January 2019
Temperature: -6.0°C (21°F)
Dewpoint: -8.0°C (18°F) [RH = 86%]
Pressure (altimeter): 30.06 inches Hg (1018.0 mb)
Winds: from the E (80 degrees) at 6 MPH (5 knots; 2.6 m/s)
Visibility: 6 or more miles (10+ km)
Ceiling: ceiling and visibility are OK
Clouds: unknown
Weather: no significant weather observed at this time

Forecast for: EDFH (HAHN , DE)
Text: TAF EDFH 202300Z 2100/2124 08005KT CAVOK
Forecast period: 0000 to 1000 UTC 21 January 2019
Forecast type: FROM: standard forecast or significant change
Winds: from the E (80 degrees) at 6 MPH (5 knots; 2.6 m/s)
Visibility: 6 or more miles 10+ km)
Ceiling: unknown
Clouds: missing
Weather: NSW  (no significant weather)
Text: BECMG 2110/2112 VRB03KT
Forecast period: 1000 to 1800 UTC 21 January 2019
Forecast type: BECOMING: Conditions expected to become as follows by 1200 UTC 21 January 2019
Winds: variable direction winds at 3 MPH (3 knots; 1.5 m/s)
Visibility: 6 or more miles 10+ km)
Ceiling: unknown
Clouds: missing
Weather: NSW  (no significant weather)
Text: BECMG 2118/2121 19005KT
Forecast period: 1800 UTC 21 January 2019 to 0000 UTC 22 January 2019
Forecast type: BECOMING: Conditions expected to become as follows by 2100 UTC 21 January 2019
Winds: from the S (190 degrees) at 6 MPH (5 knots; 2.6 m/s)
Visibility: 6 or more miles 10+ km)
Ceiling: unknown
Clouds: missing
Weather: NSW  (no significant weather)